Terminal Aerodrome Forecast
Issued by NWS

Home | Current Version | Previous Version | Text Only | Print | Product List | Glossary On
Versions: 1 2 3 4 5 6 7 8 9 10 11 12 13 14
000
FTUS45 KLKN 201728
TAFELY
TAF
KELY 201728Z 2018/2118 16022G35KT P6SM SCT060 OVC100
     FM210000 18025G38KT P6SM VCSH BKN035 OVC100
      TEMPO 2114/2118 20030G45KT=

USA.gov is the U.S. government's official web portal to all federal, state and local government web resources and services.